Tuckasegee, North Carolina
Current Conditions -  °F | °C
As of 1:54 AM on Friday 28 Nov 2014 (Local Time) from KAVL Reporting Station
Overcast Overcast  
Wind Chill: 16°   Ceiling: 3600
Heat Index: 28°   Visibility: 10mi
Dew Point: 14°   Wind: 16mph
Humidity: 56%   Direction: 340°NNW
Pressure: 30.28"   Gusts: 24mph
Location:  35.27°N, 83.12°W
Report Text: KAVL 280654Z AUTO 34014G21KT 10SM FEW030 OVC036 M02/M10 A3028 RMK AO2 SLP265 T10221100
Loading
Personal Weather Stations






























Interactive Weather Map New forecast layout! Learn more

10-Day Weather Forecast

Advertisements
Track Severe Weather on mobile